sensor_id;sensor_type;location;lat;lon;timestamp;P1;durP1;ratioP1;P2;durP2;ratioP2
60472;SDS011;46318;52.716;6.444;2023-04-06T00:02:14;8.73;;;7.93;;
60472;SDS011;46318;52.716;6.444;2023-04-06T00:04:39;9.07;;;8.13;;
60472;SDS011;46318;52.716;6.444;2023-04-06T00:07:05;8.98;;;7.97;;
60472;SDS011;46318;52.716;6.444;2023-04-06T00:09:31;9.40;;;8.27;;
60472;SDS011;46318;52.716;6.444;2023-04-06T00:11:57;9.32;;;8.32;;
60472;SDS011;46318;52.716;6.444;2023-04-06T00:14:23;10.80;;;7.93;;
60472;SDS011;46318;52.716;6.444;2023-04-06T00:16:49;9.20;;;8.23;;
60472;SDS011;46318;52.716;6.444;2023-04-06T00:19:15;9.27;;;8.35;;
60472;SDS011;46318;52.716;6.444;2023-04-06T00:21:41;9.55;;;8.45;;
60472;SDS011;46318;52.716;6.444;2023-04-06T00:24:07;9.40;;;8.32;;
60472;SDS011;46318;52.716;6.444;2023-04-06T00:26:33;8.30;;;7.53;;
60472;SDS011;46318;52.716;6.444;2023-04-06T00:28:59;11.23;;;9.00;;
60472;SDS011;46318;52.716;6.444;2023-04-06T00:31:25;9.38;;;8.13;;
60472;SDS011;46318;52.716;6.444;2023-04-06T00:33:51;10.10;;;8.02;;
60472;SDS011;46318;52.716;6.444;2023-04-06T00:36:16;9.77;;;8.40;;
60472;SDS011;46318;52.716;6.444;2023-04-06T00:38:42;8.80;;;7.90;;
60472;SDS011;46318;52.716;6.444;2023-04-06T00:41:08;8.82;;;8.02;;
60472;SDS011;46318;52.716;6.444;2023-04-06T00:43:34;9.05;;;8.15;;
60472;SDS011;46318;52.716;6.444;2023-04-06T00:46:00;10.93;;;8.40;;
60472;SDS011;46318;52.716;6.444;2023-04-06T00:48:26;10.18;;;8.50;;
60472;SDS011;46318;52.716;6.444;2023-04-06T00:50:52;9.30;;;8.30;;
60472;SDS011;46318;52.716;6.444;2023-04-06T00:53:18;11.15;;;8.48;;
60472;SDS011;46318;52.716;6.444;2023-04-06T00:55:44;11.15;;;8.77;;
60472;SDS011;46318;52.716;6.444;2023-04-06T00:58:09;9.57;;;8.68;;
60472;SDS011;46318;52.716;6.444;2023-04-06T01:00:35;9.60;;;8.43;;
60472;SDS011;46318;52.716;6.444;2023-04-06T01:03:02;11.27;;;8.63;;
60472;SDS011;46318;52.716;6.444;2023-04-06T01:05:32;11.35;;;8.70;;
60472;SDS011;46318;52.716;6.444;2023-04-06T01:08:00;9.48;;;8.57;;
60472;SDS011;46318;52.716;6.444;2023-04-06T01:10:27;9.23;;;8.27;;
60472;SDS011;46318;52.716;6.444;2023-04-06T01:12:54;11.73;;;8.68;;
60472;SDS011;46318;52.716;6.444;2023-04-06T01:15:20;11.90;;;9.27;;
60472;SDS011;46318;52.716;6.444;2023-04-06T01:17:46;9.65;;;8.68;;
60472;SDS011;46318;52.716;6.444;2023-04-06T01:20:12;13.40;;;8.35;;
60472;SDS011;46318;52.716;6.444;2023-04-06T01:22:39;9.18;;;8.27;;
60472;SDS011;46318;52.716;6.444;2023-04-06T01:25:05;10.13;;;9.07;;
60472;SDS011;46318;52.716;6.444;2023-04-06T01:27:32;10.93;;;8.63;;
60472;SDS011;46318;52.716;6.444;2023-04-06T01:29:58;10.38;;;8.38;;
60472;SDS011;46318;52.716;6.444;2023-04-06T01:32:24;11.25;;;9.05;;
60472;SDS011;46318;52.716;6.444;2023-04-06T01:34:50;10.02;;;8.75;;
60472;SDS011;46318;52.716;6.444;2023-04-06T01:37:16;9.95;;;8.82;;
60472;SDS011;46318;52.716;6.444;2023-04-06T01:39:42;10.65;;;9.55;;
60472;SDS011;46318;52.716;6.444;2023-04-06T01:42:09;9.73;;;8.35;;
60472;SDS011;46318;52.716;6.444;2023-04-06T01:44:35;10.23;;;9.18;;
60472;SDS011;46318;52.716;6.444;2023-04-06T01:47:02;9.80;;;8.75;;
60472;SDS011;46318;52.716;6.444;2023-04-06T01:49:28;11.23;;;9.02;;
60472;SDS011;46318;52.716;6.444;2023-04-06T01:51:54;10.32;;;8.80;;
60472;SDS011;46318;52.716;6.444;2023-04-06T01:54:20;11.13;;;8.80;;
60472;SDS011;46318;52.716;6.444;2023-04-06T01:56:46;9.63;;;8.55;;
60472;SDS011;46318;52.716;6.444;2023-04-06T01:59:13;10.98;;;9.38;;
60472;SDS011;46318;52.716;6.444;2023-04-06T02:01:40;10.80;;;9.75;;
60472;SDS011;46318;52.716;6.444;2023-04-06T02:04:05;9.80;;;8.65;;
60472;SDS011;46318;52.716;6.444;2023-04-06T02:06:31;10.95;;;8.88;;
60472;SDS011;46318;52.716;6.444;2023-04-06T02:08:57;9.35;;;8.45;;
60472;SDS011;46318;52.716;6.444;2023-04-06T02:11:23;11.63;;;9.07;;
60472;SDS011;46318;52.716;6.444;2023-04-06T02:13:49;10.40;;;8.80;;
60472;SDS011;46318;52.716;6.444;2023-04-06T02:16:15;9.80;;;8.48;;
60472;SDS011;46318;52.716;6.444;2023-04-06T02:18:41;9.57;;;8.65;;
60472;SDS011;46318;52.716;6.444;2023-04-06T02:21:06;10.52;;;8.50;;
60472;SDS011;46318;52.716;6.444;2023-04-06T02:23:32;11.57;;;8.60;;
60472;SDS011;46318;52.716;6.444;2023-04-06T02:25:58;9.70;;;8.60;;
60472;SDS011;46318;52.716;6.444;2023-04-06T02:28:24;11.25;;;8.13;;
60472;SDS011;46318;52.716;6.444;2023-04-06T02:30:50;10.73;;;8.63;;
60472;SDS011;46318;52.716;6.444;2023-04-06T02:33:16;9.95;;;8.20;;
60472;SDS011;46318;52.716;6.444;2023-04-06T02:35:43;10.15;;;8.73;;
60472;SDS011;46318;52.716;6.444;2023-04-06T02:38:11;10.15;;;8.40;;
60472;SDS011;46318;52.716;6.444;2023-04-06T02:40:36;10.60;;;8.23;;
60472;SDS011;46318;52.716;6.444;2023-04-06T02:43:02;10.20;;;8.75;;
60472;SDS011;46318;52.716;6.444;2023-04-06T02:45:28;10.50;;;8.60;;
60472;SDS011;46318;52.716;6.444;2023-04-06T02:47:54;12.57;;;8.55;;
60472;SDS011;46318;52.716;6.444;2023-04-06T02:50:20;9.98;;;8.98;;
60472;SDS011;46318;52.716;6.444;2023-04-06T02:52:46;10.30;;;9.25;;
60472;SDS011;46318;52.716;6.444;2023-04-06T02:55:12;11.48;;;9.30;;
60472;SDS011;46318;52.716;6.444;2023-04-06T02:57:37;9.95;;;8.25;;
60472;SDS011;46318;52.716;6.444;2023-04-06T03:00:03;11.43;;;9.50;;
60472;SDS011;46318;52.716;6.444;2023-04-06T03:02:30;12.20;;;8.95;;
60472;SDS011;46318;52.716;6.444;2023-04-06T03:04:56;12.55;;;9.05;;
60472;SDS011;46318;52.716;6.444;2023-04-06T03:07:22;10.45;;;8.68;;
60472;SDS011;46318;52.716;6.444;2023-04-06T03:09:48;11.77;;;9.20;;
60472;SDS011;46318;52.716;6.444;2023-04-06T03:12:13;10.13;;;9.13;;
60472;SDS011;46318;52.716;6.444;2023-04-06T03:14:39;12.55;;;9.27;;
60472;SDS011;46318;52.716;6.444;2023-04-06T03:17:05;11.43;;;9.02;;
60472;SDS011;46318;52.716;6.444;2023-04-06T03:19:31;11.27;;;10.07;;
60472;SDS011;46318;52.716;6.444;2023-04-06T03:21:57;13.18;;;9.40;;
60472;SDS011;46318;52.716;6.444;2023-04-06T03:24:22;10.82;;;9.45;;
60472;SDS011;46318;52.716;6.444;2023-04-06T03:26:48;11.27;;;9.50;;
60472;SDS011;46318;52.716;6.444;2023-04-06T03:29:14;12.25;;;9.90;;
60472;SDS011;46318;52.716;6.444;2023-04-06T03:31:40;13.20;;;10.77;;
60472;SDS011;46318;52.716;6.444;2023-04-06T03:34:06;14.15;;;10.52;;
60472;SDS011;46318;52.716;6.444;2023-04-06T03:36:33;12.77;;;10.88;;
60472;SDS011;46318;52.716;6.444;2023-04-06T03:39:00;13.60;;;12.15;;
60472;SDS011;46318;52.716;6.444;2023-04-06T03:41:26;14.25;;;11.50;;
60472;SDS011;46318;52.716;6.444;2023-04-06T03:43:52;17.02;;;13.68;;
60472;SDS011;46318;52.716;6.444;2023-04-06T03:46:18;18.83;;;13.30;;
60472;SDS011;46318;52.716;6.444;2023-04-06T03:48:45;18.00;;;14.02;;
60472;SDS011;46318;52.716;6.444;2023-04-06T03:51:13;16.90;;;13.75;;
60472;SDS011;46318;52.716;6.444;2023-04-06T03:53:39;18.20;;;13.73;;
60472;SDS011;46318;52.716;6.444;2023-04-06T03:56:05;18.50;;;14.70;;
60472;SDS011;46318;52.716;6.444;2023-04-06T03:58:31;18.17;;;15.10;;
60472;SDS011;46318;52.716;6.444;2023-04-06T04:00:57;17.38;;;14.52;;
60472;SDS011;46318;52.716;6.444;2023-04-06T04:03:23;17.35;;;14.38;;
60472;SDS011;46318;52.716;6.444;2023-04-06T04:05:51;17.98;;;14.20;;
60472;SDS011;46318;52.716;6.444;2023-04-06T04:08:16;15.88;;;13.70;;
60472;SDS011;46318;52.716;6.444;2023-04-06T04:10:42;14.88;;;13.20;;
60472;SDS011;46318;52.716;6.444;2023-04-06T04:13:08;15.07;;;12.77;;
60472;SDS011;46318;52.716;6.444;2023-04-06T04:15:34;15.70;;;12.93;;
60472;SDS011;46318;52.716;6.444;2023-04-06T04:18:00;14.77;;;12.07;;
60472;SDS011;46318;52.716;6.444;2023-04-06T04:20:26;14.43;;;11.50;;
60472;SDS011;46318;52.716;6.444;2023-04-06T04:22:53;18.20;;;13.13;;
60472;SDS011;46318;52.716;6.444;2023-04-06T04:25:19;19.25;;;12.52;;
60472;SDS011;46318;52.716;6.444;2023-04-06T04:27:45;15.30;;;11.82;;
60472;SDS011;46318;52.716;6.444;2023-04-06T04:30:11;14.98;;;11.82;;
60472;SDS011;46318;52.716;6.444;2023-04-06T04:32:37;13.60;;;11.10;;
60472;SDS011;46318;52.716;6.444;2023-04-06T04:35:03;14.32;;;11.95;;
60472;SDS011;46318;52.716;6.444;2023-04-06T04:37:29;13.40;;;10.95;;
60472;SDS011;46318;52.716;6.444;2023-04-06T04:39:55;13.13;;;11.68;;
60472;SDS011;46318;52.716;6.444;2023-04-06T04:42:21;12.98;;;11.68;;
60472;SDS011;46318;52.716;6.444;2023-04-06T04:44:47;13.43;;;11.05;;
60472;SDS011;46318;52.716;6.444;2023-04-06T04:47:13;12.90;;;11.48;;
60472;SDS011;46318;52.716;6.444;2023-04-06T04:49:39;13.25;;;11.05;;
60472;SDS011;46318;52.716;6.444;2023-04-06T04:52:05;13.35;;;11.05;;
60472;SDS011;46318;52.716;6.444;2023-04-06T04:54:31;13.18;;;11.32;;
60472;SDS011;46318;52.716;6.444;2023-04-06T04:56:57;12.50;;;11.20;;
60472;SDS011;46318;52.716;6.444;2023-04-06T04:59:22;13.18;;;11.75;;
60472;SDS011;46318;52.716;6.444;2023-04-06T05:01:48;14.27;;;11.43;;
60472;SDS011;46318;52.716;6.444;2023-04-06T05:04:14;13.35;;;11.32;;
60472;SDS011;46318;52.716;6.444;2023-04-06T05:06:40;14.75;;;11.90;;
60472;SDS011;46318;52.716;6.444;2023-04-06T05:09:06;14.93;;;12.05;;
60472;SDS011;46318;52.716;6.444;2023-04-06T05:11:32;13.57;;;11.48;;
60472;SDS011;46318;52.716;6.444;2023-04-06T05:13:58;13.70;;;11.82;;
60472;SDS011;46318;52.716;6.444;2023-04-06T05:16:24;13.75;;;11.63;;
60472;SDS011;46318;52.716;6.444;2023-04-06T05:18:51;13.75;;;11.93;;
60472;SDS011;46318;52.716;6.444;2023-04-06T05:21:18;14.60;;;11.13;;
60472;SDS011;46318;52.716;6.444;2023-04-06T05:23:44;12.98;;;11.63;;
60472;SDS011;46318;52.716;6.444;2023-04-06T05:26:10;13.88;;;11.73;;
60472;SDS011;46318;52.716;6.444;2023-04-06T05:28:36;12.57;;;11.10;;
60472;SDS011;46318;52.716;6.444;2023-04-06T05:31:02;14.80;;;12.02;;
60472;SDS011;46318;52.716;6.444;2023-04-06T05:33:29;16.48;;;11.30;;
60472;SDS011;46318;52.716;6.444;2023-04-06T05:35:55;13.82;;;11.63;;
60472;SDS011;46318;52.716;6.444;2023-04-06T05:38:21;15.77;;;11.73;;
60472;SDS011;46318;52.716;6.444;2023-04-06T05:40:47;18.00;;;13.07;;
60472;SDS011;46318;52.716;6.444;2023-04-06T05:43:13;15.07;;;12.15;;
60472;SDS011;46318;52.716;6.444;2023-04-06T05:45:39;14.88;;;11.20;;
60472;SDS011;46318;52.716;6.444;2023-04-06T05:48:05;14.32;;;12.32;;
60472;SDS011;46318;52.716;6.444;2023-04-06T05:50:31;13.82;;;12.13;;
60472;SDS011;46318;52.716;6.444;2023-04-06T05:52:57;22.63;;;12.90;;
60472;SDS011;46318;52.716;6.444;2023-04-06T05:55:22;13.85;;;11.55;;
60472;SDS011;46318;52.716;6.444;2023-04-06T05:57:52;14.60;;;12.00;;
60472;SDS011;46318;52.716;6.444;2023-04-06T06:00:18;13.75;;;11.50;;
60472;SDS011;46318;52.716;6.444;2023-04-06T06:02:45;14.70;;;11.98;;
60472;SDS011;46318;52.716;6.444;2023-04-06T06:05:10;12.98;;;11.52;;
60472;SDS011;46318;52.716;6.444;2023-04-06T06:07:36;15.20;;;12.32;;
60472;SDS011;46318;52.716;6.444;2023-04-06T06:10:02;15.27;;;11.90;;
60472;SDS011;46318;52.716;6.444;2023-04-06T06:12:29;15.50;;;12.13;;
60472;SDS011;46318;52.716;6.444;2023-04-06T06:14:55;14.25;;;11.75;;
60472;SDS011;46318;52.716;6.444;2023-04-06T06:17:21;15.43;;;11.75;;
60472;SDS011;46318;52.716;6.444;2023-04-06T06:19:47;13.52;;;12.05;;
60472;SDS011;46318;52.716;6.444;2023-04-06T06:22:13;16.33;;;11.98;;
60472;SDS011;46318;52.716;6.444;2023-04-06T06:24:39;17.85;;;13.05;;
60472;SDS011;46318;52.716;6.444;2023-04-06T06:27:05;16.83;;;13.20;;
60472;SDS011;46318;52.716;6.444;2023-04-06T06:29:32;13.32;;;11.82;;
60472;SDS011;46318;52.716;6.444;2023-04-06T06:31:58;15.75;;;12.20;;
60472;SDS011;46318;52.716;6.444;2023-04-06T06:34:24;13.98;;;12.38;;
60472;SDS011;46318;52.716;6.444;2023-04-06T06:36:50;15.02;;;12.80;;
60472;SDS011;46318;52.716;6.444;2023-04-06T06:39:16;15.30;;;12.57;;
60472;SDS011;46318;52.716;6.444;2023-04-06T06:41:42;15.68;;;13.10;;
60472;SDS011;46318;52.716;6.444;2023-04-06T06:44:08;14.05;;;12.45;;
60472;SDS011;46318;52.716;6.444;2023-04-06T06:46:34;16.05;;;12.68;;
60472;SDS011;46318;52.716;6.444;2023-04-06T06:49:00;15.93;;;12.35;;
60472;SDS011;46318;52.716;6.444;2023-04-06T06:51:25;16.42;;;12.68;;
60472;SDS011;46318;52.716;6.444;2023-04-06T06:53:51;16.30;;;13.05;;
60472;SDS011;46318;52.716;6.444;2023-04-06T06:56:17;16.45;;;12.57;;
60472;SDS011;46318;52.716;6.444;2023-04-06T06:58:43;16.23;;;12.80;;
60472;SDS011;46318;52.716;6.444;2023-04-06T07:01:10;15.50;;;12.77;;
60472;SDS011;46318;52.716;6.444;2023-04-06T07:03:35;16.48;;;13.32;;
60472;SDS011;46318;52.716;6.444;2023-04-06T07:06:01;16.80;;;14.10;;
60472;SDS011;46318;52.716;6.444;2023-04-06T07:08:27;18.45;;;13.02;;
60472;SDS011;46318;52.716;6.444;2023-04-06T07:10:53;17.40;;;13.07;;
60472;SDS011;46318;52.716;6.444;2023-04-06T07:13:21;17.60;;;13.65;;
60472;SDS011;46318;52.716;6.444;2023-04-06T07:15:48;16.92;;;14.05;;
60472;SDS011;46318;52.716;6.444;2023-04-06T07:18:15;15.80;;;13.68;;
60472;SDS011;46318;52.716;6.444;2023-04-06T07:20:42;17.20;;;14.45;;
60472;SDS011;46318;52.716;6.444;2023-04-06T07:23:08;19.17;;;14.93;;
60472;SDS011;46318;52.716;6.444;2023-04-06T07:25:34;16.15;;;13.30;;
60472;SDS011;46318;52.716;6.444;2023-04-06T07:28:01;18.48;;;14.98;;
60472;SDS011;46318;52.716;6.444;2023-04-06T07:30:28;18.20;;;14.40;;
60472;SDS011;46318;52.716;6.444;2023-04-06T07:32:54;17.52;;;15.02;;
60472;SDS011;46318;52.716;6.444;2023-04-06T07:35:21;17.40;;;14.23;;
60472;SDS011;46318;52.716;6.444;2023-04-06T07:37:49;19.63;;;15.10;;
60472;SDS011;46318;52.716;6.444;2023-04-06T07:40:15;19.23;;;15.27;;
60472;SDS011;46318;52.716;6.444;2023-04-06T07:42:41;20.23;;;15.80;;
60472;SDS011;46318;52.716;6.444;2023-04-06T07:45:07;16.73;;;13.88;;
60472;SDS011;46318;52.716;6.444;2023-04-06T07:47:33;21.85;;;15.45;;
60472;SDS011;46318;52.716;6.444;2023-04-06T07:50:00;19.25;;;15.18;;
60472;SDS011;46318;52.716;6.444;2023-04-06T07:52:26;19.25;;;15.80;;
60472;SDS011;46318;52.716;6.444;2023-04-06T07:54:52;18.92;;;15.95;;
60472;SDS011;46318;52.716;6.444;2023-04-06T07:57:18;20.05;;;15.90;;
60472;SDS011;46318;52.716;6.444;2023-04-06T07:59:44;22.17;;;15.77;;
60472;SDS011;46318;52.716;6.444;2023-04-06T08:02:10;22.08;;;15.32;;
60472;SDS011;46318;52.716;6.444;2023-04-06T08:04:36;19.88;;;14.65;;
60472;SDS011;46318;52.716;6.444;2023-04-06T08:07:02;25.30;;;15.85;;
60472;SDS011;46318;52.716;6.444;2023-04-06T08:09:27;20.85;;;16.05;;
60472;SDS011;46318;52.716;6.444;2023-04-06T08:11:53;21.73;;;16.50;;
60472;SDS011;46318;52.716;6.444;2023-04-06T08:14:19;21.08;;;15.30;;
60472;SDS011;46318;52.716;6.444;2023-04-06T08:16:46;22.00;;;16.67;;
60472;SDS011;46318;52.716;6.444;2023-04-06T08:19:12;20.20;;;15.82;;
60472;SDS011;46318;52.716;6.444;2023-04-06T08:21:38;18.55;;;15.30;;
60472;SDS011;46318;52.716;6.444;2023-04-06T08:24:05;21.20;;;14.80;;
60472;SDS011;46318;52.716;6.444;2023-04-06T08:26:31;19.17;;;14.45;;
60472;SDS011;46318;52.716;6.444;2023-04-06T08:28:57;22.50;;;15.98;;
60472;SDS011;46318;52.716;6.444;2023-04-06T08:31:23;19.88;;;14.50;;
60472;SDS011;46318;52.716;6.444;2023-04-06T08:33:49;18.92;;;14.68;;
60472;SDS011;46318;52.716;6.444;2023-04-06T08:36:15;19.27;;;14.88;;
60472;SDS011;46318;52.716;6.444;2023-04-06T08:38:43;19.00;;;14.88;;
60472;SDS011;46318;52.716;6.444;2023-04-06T08:41:12;20.63;;;14.82;;
60472;SDS011;46318;52.716;6.444;2023-04-06T08:44:01;22.52;;;14.27;;
60472;SDS011;46318;52.716;6.444;2023-04-06T08:46:28;18.95;;;15.13;;
60472;SDS011;46318;52.716;6.444;2023-04-06T08:48:59;21.88;;;15.75;;
60472;SDS011;46318;52.716;6.444;2023-04-06T08:51:27;21.92;;;15.43;;
60472;SDS011;46318;52.716;6.444;2023-04-06T08:53:56;18.77;;;14.13;;
60472;SDS011;46318;52.716;6.444;2023-04-06T08:56:24;19.85;;;15.13;;
60472;SDS011;46318;52.716;6.444;2023-04-06T08:58:54;20.35;;;15.77;;
60472;SDS011;46318;52.716;6.444;2023-04-06T09:01:23;20.65;;;15.40;;
60472;SDS011;46318;52.716;6.444;2023-04-06T09:03:56;18.67;;;15.32;;
60472;SDS011;46318;52.716;6.444;2023-04-06T09:06:25;20.48;;;14.48;;
60472;SDS011;46318;52.716;6.444;2023-04-06T09:08:55;22.48;;;16.55;;
60472;SDS011;46318;52.716;6.444;2023-04-06T09:11:23;20.95;;;15.90;;
60472;SDS011;46318;52.716;6.444;2023-04-06T09:13:50;20.40;;;16.38;;
60472;SDS011;46318;52.716;6.444;2023-04-06T09:16:19;20.60;;;15.93;;
60472;SDS011;46318;52.716;6.444;2023-04-06T09:18:45;21.80;;;16.55;;
60472;SDS011;46318;52.716;6.444;2023-04-06T09:21:12;21.15;;;16.05;;
60472;SDS011;46318;52.716;6.444;2023-04-06T09:23:38;20.90;;;16.63;;
60472;SDS011;46318;52.716;6.444;2023-04-06T09:26:05;20.02;;;16.15;;
60472;SDS011;46318;52.716;6.444;2023-04-06T09:31:25;21.02;;;16.73;;
60472;SDS011;46318;52.716;6.444;2023-04-06T09:33:57;23.83;;;17.42;;
60472;SDS011;46318;52.716;6.444;2023-04-06T09:36:32;21.17;;;16.35;;
60472;SDS011;46318;52.716;6.444;2023-04-06T09:39:03;25.42;;;17.15;;
60472;SDS011;46318;52.716;6.444;2023-04-06T09:41:31;20.92;;;17.15;;
60472;SDS011;46318;52.716;6.444;2023-04-06T09:46:38;21.33;;;17.38;;
60472;SDS011;46318;52.716;6.444;2023-04-06T09:49:09;23.40;;;18.08;;
60472;SDS011;46318;52.716;6.444;2023-04-06T09:51:46;23.08;;;18.98;;
60472;SDS011;46318;52.716;6.444;2023-04-06T09:54:18;22.75;;;17.13;;
60472;SDS011;46318;52.716;6.444;2023-04-06T09:56:47;23.83;;;17.17;;
60472;SDS011;46318;52.716;6.444;2023-04-06T09:59:26;24.30;;;18.92;;
60472;SDS011;46318;52.716;6.444;2023-04-06T10:07:50;22.52;;;18.58;;
60472;SDS011;46318;52.716;6.444;2023-04-06T10:10:21;23.07;;;18.33;;
60472;SDS011;46318;52.716;6.444;2023-04-06T10:12:47;23.73;;;17.80;;
60472;SDS011;46318;52.716;6.444;2023-04-06T10:15:15;23.20;;;18.75;;
60472;SDS011;46318;52.716;6.444;2023-04-06T10:17:41;27.23;;;18.15;;
60472;SDS011;46318;52.716;6.444;2023-04-06T10:20:15;28.60;;;19.23;;
60472;SDS011;46318;52.716;6.444;2023-04-06T10:26:42;25.98;;;18.50;;
60472;SDS011;46318;52.716;6.444;2023-04-06T10:28:42;25.80;;;18.98;;
60472;SDS011;46318;52.716;6.444;2023-04-06T10:31:09;24.10;;;18.65;;
60472;SDS011;46318;52.716;6.444;2023-04-06T10:33:35;24.45;;;18.88;;
60472;SDS011;46318;52.716;6.444;2023-04-06T10:38:46;25.35;;;18.45;;
60472;SDS011;46318;52.716;6.444;2023-04-06T10:41:12;25.83;;;19.52;;
60472;SDS011;46318;52.716;6.444;2023-04-06T10:43:41;24.70;;;19.67;;
60472;SDS011;46318;52.716;6.444;2023-04-06T10:46:08;26.98;;;19.83;;
60472;SDS011;46318;52.716;6.444;2023-04-06T10:51:11;25.08;;;19.55;;
60472;SDS011;46318;52.716;6.444;2023-04-06T10:53:43;27.73;;;21.20;;
60472;SDS011;46318;52.716;6.444;2023-04-06T10:56:17;29.15;;;20.88;;
60472;SDS011;46318;52.716;6.444;2023-04-06T10:58:48;27.70;;;20.77;;
60472;SDS011;46318;52.716;6.444;2023-04-06T11:01:16;26.33;;;20.73;;
60472;SDS011;46318;52.716;6.444;2023-04-06T11:03:44;29.05;;;21.20;;
60472;SDS011;46318;52.716;6.444;2023-04-06T11:06:18;26.35;;;20.83;;
60472;SDS011;46318;52.716;6.444;2023-04-06T11:08:48;31.48;;;22.17;;
60472;SDS011;46318;52.716;6.444;2023-04-06T11:11:17;29.65;;;22.10;;
60472;SDS011;46318;52.716;6.444;2023-04-06T11:13:55;30.77;;;23.33;;
60472;SDS011;46318;52.716;6.444;2023-04-06T11:16:25;29.27;;;21.42;;
60472;SDS011;46318;52.716;6.444;2023-04-06T11:18:54;29.17;;;21.92;;
60472;SDS011;46318;52.716;6.444;2023-04-06T11:24:15;27.65;;;21.25;;
60472;SDS011;46318;52.716;6.444;2023-04-06T11:26:49;28.83;;;21.33;;
60472;SDS011;46318;52.716;6.444;2023-04-06T11:29:20;29.25;;;21.00;;
60472;SDS011;46318;52.716;6.444;2023-04-06T11:31:49;27.88;;;20.85;;
60472;SDS011;46318;52.716;6.444;2023-04-06T11:34:17;27.05;;;20.58;;
60472;SDS011;46318;52.716;6.444;2023-04-06T11:36:54;29.08;;;21.13;;
60472;SDS011;46318;52.716;6.444;2023-04-06T11:39:38;26.75;;;21.00;;
60472;SDS011;46318;52.716;6.444;2023-04-06T11:42:20;25.75;;;20.23;;
60472;SDS011;46318;52.716;6.444;2023-04-06T11:44:53;27.58;;;20.73;;
60472;SDS011;46318;52.716;6.444;2023-04-06T11:47:26;29.65;;;20.77;;
60472;SDS011;46318;52.716;6.444;2023-04-06T11:50:07;29.90;;;21.08;;
60472;SDS011;46318;52.716;6.444;2023-04-06T11:52:36;26.00;;;21.38;;
60472;SDS011;46318;52.716;6.444;2023-04-06T11:55:13;28.70;;;20.05;;
60472;SDS011;46318;52.716;6.444;2023-04-06T11:57:41;30.20;;;19.80;;
60472;SDS011;46318;52.716;6.444;2023-04-06T12:00:08;27.52;;;20.77;;
60472;SDS011;46318;52.716;6.444;2023-04-06T12:02:36;26.80;;;19.90;;
60472;SDS011;46318;52.716;6.444;2023-04-06T12:05:03;26.73;;;19.85;;
60472;SDS011;46318;52.716;6.444;2023-04-06T12:07:31;25.70;;;20.98;;
60472;SDS011;46318;52.716;6.444;2023-04-06T12:09:58;27.23;;;20.30;;
60472;SDS011;46318;52.716;6.444;2023-04-06T12:12:25;26.27;;;20.27;;
60472;SDS011;46318;52.716;6.444;2023-04-06T12:14:52;26.45;;;19.35;;
60472;SDS011;46318;52.716;6.444;2023-04-06T12:17:18;27.58;;;19.40;;
60472;SDS011;46318;52.716;6.444;2023-04-06T12:19:45;26.25;;;20.40;;
60472;SDS011;46318;52.716;6.444;2023-04-06T12:22:11;22.60;;;17.95;;
60472;SDS011;46318;52.716;6.444;2023-04-06T12:24:38;22.85;;;17.70;;
60472;SDS011;46318;52.716;6.444;2023-04-06T12:27:03;23.00;;;17.52;;
60472;SDS011;46318;52.716;6.444;2023-04-06T12:29:29;23.52;;;18.25;;
60472;SDS011;46318;52.716;6.444;2023-04-06T12:31:55;25.00;;;18.65;;
60472;SDS011;46318;52.716;6.444;2023-04-06T12:34:21;27.35;;;19.45;;
60472;SDS011;46318;52.716;6.444;2023-04-06T12:36:47;22.60;;;17.80;;
60472;SDS011;46318;52.716;6.444;2023-04-06T12:39:13;21.73;;;18.00;;
60472;SDS011;46318;52.716;6.444;2023-04-06T12:41:39;26.05;;;18.55;;
60472;SDS011;46318;52.716;6.444;2023-04-06T12:44:07;24.02;;;18.58;;
60472;SDS011;46318;52.716;6.444;2023-04-06T12:46:33;25.40;;;19.67;;
60472;SDS011;46318;52.716;6.444;2023-04-06T12:49:00;22.50;;;18.55;;
60472;SDS011;46318;52.716;6.444;2023-04-06T12:51:29;23.65;;;18.17;;
60472;SDS011;46318;52.716;6.444;2023-04-06T12:53:56;22.40;;;17.45;;
60472;SDS011;46318;52.716;6.444;2023-04-06T12:56:22;22.75;;;17.25;;
60472;SDS011;46318;52.716;6.444;2023-04-06T12:58:50;21.83;;;15.85;;
60472;SDS011;46318;52.716;6.444;2023-04-06T13:01:17;22.48;;;15.90;;
60472;SDS011;46318;52.716;6.444;2023-04-06T13:03:43;20.70;;;14.65;;
60472;SDS011;46318;52.716;6.444;2023-04-06T13:06:09;18.90;;;14.63;;
60472;SDS011;46318;52.716;6.444;2023-04-06T13:08:36;15.15;;;11.60;;
60472;SDS011;46318;52.716;6.444;2023-04-06T13:11:04;13.20;;;10.40;;
60472;SDS011;46318;52.716;6.444;2023-04-06T13:13:33;11.60;;;9.45;;
60472;SDS011;46318;52.716;6.444;2023-04-06T13:16:00;13.13;;;10.68;;
60472;SDS011;46318;52.716;6.444;2023-04-06T13:18:36;13.38;;;10.80;;
60472;SDS011;46318;52.716;6.444;2023-04-06T13:21:03;14.27;;;11.60;;
60472;SDS011;46318;52.716;6.444;2023-04-06T13:23:31;14.75;;;10.82;;
60472;SDS011;46318;52.716;6.444;2023-04-06T13:26:00;14.55;;;12.55;;
60472;SDS011;46318;52.716;6.444;2023-04-06T13:28:31;15.82;;;11.90;;
60472;SDS011;46318;52.716;6.444;2023-04-06T13:30:59;13.40;;;10.65;;
60472;SDS011;46318;52.716;6.444;2023-04-06T13:33:26;15.05;;;11.50;;
60472;SDS011;46318;52.716;6.444;2023-04-06T13:35:53;13.23;;;11.02;;
60472;SDS011;46318;52.716;6.444;2023-04-06T13:38:19;16.65;;;12.35;;
60472;SDS011;46318;52.716;6.444;2023-04-06T13:40:45;17.02;;;14.20;;
60472;SDS011;46318;52.716;6.444;2023-04-06T13:43:11;16.73;;;13.52;;
60472;SDS011;46318;52.716;6.444;2023-04-06T13:45:38;18.00;;;13.82;;
60472;SDS011;46318;52.716;6.444;2023-04-06T13:48:04;17.70;;;13.38;;
60472;SDS011;46318;52.716;6.444;2023-04-06T13:50:31;16.98;;;13.13;;
60472;SDS011;46318;52.716;6.444;2023-04-06T13:52:58;16.50;;;13.52;;
60472;SDS011;46318;52.716;6.444;2023-04-06T13:55:24;17.40;;;13.10;;
60472;SDS011;46318;52.716;6.444;2023-04-06T13:57:50;21.50;;;13.45;;
60472;SDS011;46318;52.716;6.444;2023-04-06T14:00:16;17.13;;;12.35;;
60472;SDS011;46318;52.716;6.444;2023-04-06T14:02:42;14.80;;;12.18;;
60472;SDS011;46318;52.716;6.444;2023-04-06T14:05:09;19.25;;;14.35;;
60472;SDS011;46318;52.716;6.444;2023-04-06T14:07:35;16.48;;;12.55;;
60472;SDS011;46318;52.716;6.444;2023-04-06T14:10:02;15.13;;;11.43;;
60472;SDS011;46318;52.716;6.444;2023-04-06T14:12:28;12.85;;;10.50;;
60472;SDS011;46318;52.716;6.444;2023-04-06T14:14:54;12.40;;;10.93;;
60472;SDS011;46318;52.716;6.444;2023-04-06T14:17:20;12.68;;;11.27;;
60472;SDS011;46318;52.716;6.444;2023-04-06T14:19:46;16.67;;;11.27;;
60472;SDS011;46318;52.716;6.444;2023-04-06T14:22:17;15.18;;;12.10;;
60472;SDS011;46318;52.716;6.444;2023-04-06T14:24:43;17.55;;;12.52;;
60472;SDS011;46318;52.716;6.444;2023-04-06T14:27:09;15.35;;;12.00;;
60472;SDS011;46318;52.716;6.444;2023-04-06T14:29:35;16.98;;;14.07;;
60472;SDS011;46318;52.716;6.444;2023-04-06T14:32:01;16.42;;;13.18;;
60472;SDS011;46318;52.716;6.444;2023-04-06T14:34:26;17.50;;;13.93;;
60472;SDS011;46318;52.716;6.444;2023-04-06T14:36:52;15.23;;;13.15;;
60472;SDS011;46318;52.716;6.444;2023-04-06T14:39:18;16.05;;;12.85;;
60472;SDS011;46318;52.716;6.444;2023-04-06T14:41:44;15.70;;;13.63;;
60472;SDS011;46318;52.716;6.444;2023-04-06T14:44:12;18.77;;;13.73;;
60472;SDS011;46318;52.716;6.444;2023-04-06T14:46:41;20.27;;;14.75;;
60472;SDS011;46318;52.716;6.444;2023-04-06T14:49:08;18.52;;;15.02;;